sensor_id;sensor_type;location;lat;lon;timestamp;pressure;altitude;pressure_sealevel;temperature;humidity
43683;BME280;29285;52.128;21.060;2024-02-26T00:04:07;99491.96;;;8.44;100.00
43683;BME280;29285;52.128;21.060;2024-02-26T00:09:09;99485.00;;;8.29;100.00
43683;BME280;29285;52.128;21.060;2024-02-26T00:14:10;99489.21;;;8.25;100.00
43683;BME280;29285;52.128;21.060;2024-02-26T00:19:11;99492.14;;;8.27;100.00
43683;BME280;29285;52.128;21.060;2024-02-26T00:24:12;99490.84;;;8.31;100.00
43683;BME280;29285;52.128;21.060;2024-02-26T00:29:13;99488.57;;;8.32;100.00
43683;BME280;29285;52.128;21.060;2024-02-26T00:34:14;99481.84;;;8.32;100.00
43683;BME280;29285;52.128;21.060;2024-02-26T00:39:15;99480.27;;;8.32;100.00
43683;BME280;29285;52.128;21.060;2024-02-26T00:44:17;99474.73;;;8.32;100.00
43683;BME280;29285;52.128;21.060;2024-02-26T00:49:18;99471.46;;;8.32;100.00
43683;BME280;29285;52.128;21.060;2024-02-26T00:54:19;99465.79;;;8.30;100.00
43683;BME280;29285;52.128;21.060;2024-02-26T00:59:20;99466.35;;;8.28;100.00
43683;BME280;29285;52.128;21.060;2024-02-26T01:04:21;99470.12;;;8.20;100.00
43683;BME280;29285;52.128;21.060;2024-02-26T01:09:22;99465.71;;;8.16;100.00
43683;BME280;29285;52.128;21.060;2024-02-26T01:14:23;99463.39;;;8.12;100.00
43683;BME280;29285;52.128;21.060;2024-02-26T01:19:24;99461.43;;;8.05;100.00
43683;BME280;29285;52.128;21.060;2024-02-26T01:24:25;99461.83;;;8.03;100.00
43683;BME280;29285;52.128;21.060;2024-02-26T01:29:26;99462.55;;;8.01;100.00
43683;BME280;29285;52.128;21.060;2024-02-26T01:34:27;99465.73;;;7.98;100.00
43683;BME280;29285;52.128;21.060;2024-02-26T01:39:28;99466.13;;;7.94;100.00
43683;BME280;29285;52.128;21.060;2024-02-26T01:44:30;99466.72;;;7.91;100.00
43683;BME280;29285;52.128;21.060;2024-02-26T01:49:31;99459.90;;;7.87;100.00
43683;BME280;29285;52.128;21.060;2024-02-26T01:54:35;99462.65;;;7.87;100.00
43683;BME280;29285;52.128;21.060;2024-02-26T01:59:38;99464.02;;;7.88;100.00
43683;BME280;29285;52.128;21.060;2024-02-26T02:04:43;99464.09;;;7.84;100.00
43683;BME280;29285;52.128;21.060;2024-02-26T02:09:44;99465.01;;;7.81;100.00
43683;BME280;29285;52.128;21.060;2024-02-26T02:14:45;99469.38;;;7.78;100.00
43683;BME280;29285;52.128;21.060;2024-02-26T02:19:46;99465.73;;;7.70;100.00
43683;BME280;29285;52.128;21.060;2024-02-26T02:24:48;99466.58;;;7.61;100.00
43683;BME280;29285;52.128;21.060;2024-02-26T02:29:49;99467.30;;;7.59;100.00
43683;BME280;29285;52.128;21.060;2024-02-26T02:34:50;99474.17;;;7.60;100.00
43683;BME280;29285;52.128;21.060;2024-02-26T02:39:51;99479.56;;;7.59;100.00
43683;BME280;29285;52.128;21.060;2024-02-26T02:44:54;99478.92;;;7.56;100.00
43683;BME280;29285;52.128;21.060;2024-02-26T02:49:55;99477.94;;;7.52;100.00
43683;BME280;29285;52.128;21.060;2024-02-26T02:54:56;99486.67;;;7.46;100.00
43683;BME280;29285;52.128;21.060;2024-02-26T02:59:57;99496.10;;;7.40;100.00
43683;BME280;29285;52.128;21.060;2024-02-26T03:04:58;99496.89;;;7.34;100.00
43683;BME280;29285;52.128;21.060;2024-02-26T03:09:59;99499.52;;;7.30;100.00
43683;BME280;29285;52.128;21.060;2024-02-26T03:15:01;99500.58;;;7.30;100.00
43683;BME280;29285;52.128;21.060;2024-02-26T03:20:05;99507.25;;;7.22;100.00
43683;BME280;29285;52.128;21.060;2024-02-26T03:25:09;99505.60;;;7.17;100.00
43683;BME280;29285;52.128;21.060;2024-02-26T03:30:10;99513.05;;;7.15;100.00
43683;BME280;29285;52.128;21.060;2024-02-26T03:35:11;99509.95;;;7.14;100.00
43683;BME280;29285;52.128;21.060;2024-02-26T03:40:12;99505.97;;;7.16;100.00
43683;BME280;29285;52.128;21.060;2024-02-26T03:45:15;99504.55;;;7.18;100.00
43683;BME280;29285;52.128;21.060;2024-02-26T03:50:16;99502.30;;;7.18;100.00
43683;BME280;29285;52.128;21.060;2024-02-26T03:55:17;99500.25;;;7.17;100.00
43683;BME280;29285;52.128;21.060;2024-02-26T04:00:22;99497.65;;;7.18;100.00
43683;BME280;29285;52.128;21.060;2024-02-26T04:05:23;99501.95;;;7.18;100.00
43683;BME280;29285;52.128;21.060;2024-02-26T04:10:24;99503.15;;;7.19;100.00
43683;BME280;29285;52.128;21.060;2024-02-26T04:15:25;99504.52;;;7.19;100.00
43683;BME280;29285;52.128;21.060;2024-02-26T04:20:26;99497.46;;;7.18;100.00
43683;BME280;29285;52.128;21.060;2024-02-26T04:25:27;99496.44;;;7.18;100.00
43683;BME280;29285;52.128;21.060;2024-02-26T04:30:29;99498.75;;;7.14;100.00
43683;BME280;29285;52.128;21.060;2024-02-26T04:35:30;99496.23;;;7.09;100.00
43683;BME280;29285;52.128;21.060;2024-02-26T04:40:31;99495.38;;;7.08;100.00
43683;BME280;29285;52.128;21.060;2024-02-26T04:45:32;99492.35;;;7.04;100.00
43683;BME280;29285;52.128;21.060;2024-02-26T04:50:33;99499.44;;;7.02;100.00
43683;BME280;29285;52.128;21.060;2024-02-26T04:55:34;99508.96;;;7.00;100.00
43683;BME280;29285;52.128;21.060;2024-02-26T05:00:35;99504.13;;;7.00;100.00
43683;BME280;29285;52.128;21.060;2024-02-26T05:05:36;99502.91;;;7.01;100.00
43683;BME280;29285;52.128;21.060;2024-02-26T05:10:37;99502.92;;;6.99;100.00
43683;BME280;29285;52.128;21.060;2024-02-26T05:15:41;99506.90;;;6.99;100.00
43683;BME280;29285;52.128;21.060;2024-02-26T05:20:42;99506.86;;;7.01;100.00
43683;BME280;29285;52.128;21.060;2024-02-26T05:25:43;99504.95;;;7.02;100.00
43683;BME280;29285;52.128;21.060;2024-02-26T05:30:48;99507.34;;;7.04;100.00
43683;BME280;29285;52.128;21.060;2024-02-26T05:35:49;99510.67;;;7.00;100.00
43683;BME280;29285;52.128;21.060;2024-02-26T05:40:50;99525.12;;;7.03;100.00
43683;BME280;29285;52.128;21.060;2024-02-26T05:45:53;99531.31;;;7.05;100.00
43683;BME280;29285;52.128;21.060;2024-02-26T05:50:54;99529.58;;;7.05;100.00
43683;BME280;29285;52.128;21.060;2024-02-26T05:55:55;99526.39;;;7.11;100.00
43683;BME280;29285;52.128;21.060;2024-02-26T06:00:56;99528.02;;;7.18;100.00
43683;BME280;29285;52.128;21.060;2024-02-26T06:05:57;99532.64;;;7.20;100.00
43683;BME280;29285;52.128;21.060;2024-02-26T06:10:58;99542.21;;;7.25;100.00
43683;BME280;29285;52.128;21.060;2024-02-26T06:15:59;99542.61;;;7.34;100.00
43683;BME280;29285;52.128;21.060;2024-02-26T06:21:00;99541.27;;;7.42;100.00
43683;BME280;29285;52.128;21.060;2024-02-26T06:26:01;99543.55;;;7.51;100.00
43683;BME280;29285;52.128;21.060;2024-02-26T06:31:02;99541.81;;;7.62;100.00
43683;BME280;29285;52.128;21.060;2024-02-26T06:36:03;99544.63;;;7.70;100.00
43683;BME280;29285;52.128;21.060;2024-02-26T06:41:05;99551.42;;;7.76;100.00
43683;BME280;29285;52.128;21.060;2024-02-26T06:46:06;99549.45;;;7.81;100.00
43683;BME280;29285;52.128;21.060;2024-02-26T06:51:08;99556.58;;;7.88;100.00
43683;BME280;29285;52.128;21.060;2024-02-26T06:56:09;99554.84;;;7.98;100.00
43683;BME280;29285;52.128;21.060;2024-02-26T07:01:11;99558.89;;;8.14;100.00
43683;BME280;29285;52.128;21.060;2024-02-26T07:06:12;99565.91;;;8.27;100.00
43683;BME280;29285;52.128;21.060;2024-02-26T07:11:14;99566.73;;;8.39;100.00
43683;BME280;29285;52.128;21.060;2024-02-26T07:16:15;99567.56;;;8.49;100.00
43683;BME280;29285;52.128;21.060;2024-02-26T07:21:16;99574.27;;;8.61;100.00
43683;BME280;29285;52.128;21.060;2024-02-26T07:26:17;99572.48;;;8.73;100.00
43683;BME280;29285;52.128;21.060;2024-02-26T07:31:20;99578.77;;;8.86;100.00
43683;BME280;29285;52.128;21.060;2024-02-26T07:36:21;99579.02;;;8.99;100.00
43683;BME280;29285;52.128;21.060;2024-02-26T07:41:21;99582.59;;;9.10;100.00
43683;BME280;29285;52.128;21.060;2024-02-26T07:46:22;99583.09;;;9.20;100.00
43683;BME280;29285;52.128;21.060;2024-02-26T07:51:23;99584.42;;;9.29;100.00
43683;BME280;29285;52.128;21.060;2024-02-26T07:56:24;99583.59;;;9.44;100.00
43683;BME280;29285;52.128;21.060;2024-02-26T08:01:25;99587.21;;;9.59;100.00
43683;BME280;29285;52.128;21.060;2024-02-26T08:06:27;99592.03;;;9.75;100.00
43683;BME280;29285;52.128;21.060;2024-02-26T08:11:28;99593.71;;;9.91;100.00
43683;BME280;29285;52.128;21.060;2024-02-26T08:16:29;99596.21;;;10.02;100.00
43683;BME280;29285;52.128;21.060;2024-02-26T08:21:30;99600.48;;;9.97;100.00
43683;BME280;29285;52.128;21.060;2024-02-26T08:26:31;99602.30;;;10.01;100.00
43683;BME280;29285;52.128;21.060;2024-02-26T08:31:32;99605.77;;;10.15;100.00
43683;BME280;29285;52.128;21.060;2024-02-26T08:36:33;99609.45;;;10.33;100.00
43683;BME280;29285;52.128;21.060;2024-02-26T08:41:35;99613.23;;;10.49;100.00
43683;BME280;29285;52.128;21.060;2024-02-26T08:46:36;99613.39;;;10.55;100.00
43683;BME280;29285;52.128;21.060;2024-02-26T08:51:43;99608.98;;;10.65;100.00
43683;BME280;29285;52.128;21.060;2024-02-26T08:56:44;99611.41;;;10.65;100.00
43683;BME280;29285;52.128;21.060;2024-02-26T09:01:45;99612.37;;;10.73;100.00
43683;BME280;29285;52.128;21.060;2024-02-26T09:06:47;99615.49;;;10.80;100.00
43683;BME280;29285;52.128;21.060;2024-02-26T09:11:48;99622.73;;;10.87;100.00
43683;BME280;29285;52.128;21.060;2024-02-26T09:16:52;99624.73;;;10.97;100.00
43683;BME280;29285;52.128;21.060;2024-02-26T09:21:53;99624.83;;;11.06;100.00
43683;BME280;29285;52.128;21.060;2024-02-26T09:26:58;99625.67;;;11.12;100.00
43683;BME280;29285;52.128;21.060;2024-02-26T09:31:59;99625.91;;;11.16;100.00
43683;BME280;29285;52.128;21.060;2024-02-26T09:36:59;99636.17;;;11.16;100.00
43683;BME280;29285;52.128;21.060;2024-02-26T09:42:04;99628.59;;;11.13;100.00
43683;BME280;29285;52.128;21.060;2024-02-26T09:47:09;99627.63;;;11.11;100.00
43683;BME280;29285;52.128;21.060;2024-02-26T09:52:11;99632.52;;;11.10;100.00
43683;BME280;29285;52.128;21.060;2024-02-26T09:57:15;99643.77;;;11.05;100.00
43683;BME280;29285;52.128;21.060;2024-02-26T10:02:19;99649.47;;;11.00;100.00
43683;BME280;29285;52.128;21.060;2024-02-26T10:07:21;99652.71;;;10.95;100.00
43683;BME280;29285;52.128;21.060;2024-02-26T10:12:23;99652.71;;;10.95;100.00
43683;BME280;29285;52.128;21.060;2024-02-26T10:17:24;99656.55;;;10.88;100.00
43683;BME280;29285;52.128;21.060;2024-02-26T10:22:27;99650.59;;;10.84;100.00
43683;BME280;29285;52.128;21.060;2024-02-26T10:27:28;99645.06;;;10.83;100.00
43683;BME280;29285;52.128;21.060;2024-02-26T10:32:29;99650.20;;;10.87;100.00
43683;BME280;29285;52.128;21.060;2024-02-26T10:37:30;99651.56;;;10.87;100.00
43683;BME280;29285;52.128;21.060;2024-02-26T10:42:31;99654.46;;;10.82;100.00
43683;BME280;29285;52.128;21.060;2024-02-26T10:47:33;99657.17;;;10.85;100.00
43683;BME280;29285;52.128;21.060;2024-02-26T10:52:35;99655.64;;;10.89;100.00
43683;BME280;29285;52.128;21.060;2024-02-26T10:57:40;99645.15;;;11.05;100.00
43683;BME280;29285;52.128;21.060;2024-02-26T11:02:44;99643.27;;;11.23;100.00
43683;BME280;29285;52.128;21.060;2024-02-26T11:07:45;99637.10;;;11.48;100.00
43683;BME280;29285;52.128;21.060;2024-02-26T11:12:49;99633.07;;;11.83;100.00
43683;BME280;29285;52.128;21.060;2024-02-26T11:17:52;99629.52;;;12.01;100.00
43683;BME280;29285;52.128;21.060;2024-02-26T11:22:53;99627.81;;;12.17;100.00
43683;BME280;29285;52.128;21.060;2024-02-26T11:27:56;99624.51;;;12.27;100.00
43683;BME280;29285;52.128;21.060;2024-02-26T11:33:00;99626.74;;;12.33;100.00
43683;BME280;29285;52.128;21.060;2024-02-26T11:38:02;99629.98;;;12.75;100.00
43683;BME280;29285;52.128;21.060;2024-02-26T11:43:04;99618.98;;;13.14;100.00
43683;BME280;29285;52.128;21.060;2024-02-26T11:48:24;99620.79;;;13.39;100.00
43683;BME280;29285;52.128;21.060;2024-02-26T11:53:30;99620.79;;;13.44;100.00
43683;BME280;29285;52.128;21.060;2024-02-26T11:58:32;99617.25;;;13.46;100.00
43683;BME280;29285;52.128;21.060;2024-02-26T12:03:33;99613.54;;;13.61;100.00
43683;BME280;29285;52.128;21.060;2024-02-26T12:08:34;99611.73;;;13.93;100.00
43683;BME280;29285;52.128;21.060;2024-02-26T12:13:38;99608.89;;;14.39;100.00
43683;BME280;29285;52.128;21.060;2024-02-26T12:18:44;99601.91;;;14.76;100.00
43683;BME280;29285;52.128;21.060;2024-02-26T12:23:46;99609.08;;;14.76;100.00
43683;BME280;29285;52.128;21.060;2024-02-26T12:28:48;99607.51;;;14.99;100.00
43683;BME280;29285;52.128;21.060;2024-02-26T12:33:49;99616.54;;;15.19;100.00
43683;BME280;29285;52.128;21.060;2024-02-26T12:38:53;99619.66;;;15.20;100.00
43683;BME280;29285;52.128;21.060;2024-02-26T12:43:54;99614.21;;;15.36;100.00
43683;BME280;29285;52.128;21.060;2024-02-26T12:48:56;99613.09;;;15.63;100.00
43683;BME280;29285;52.128;21.060;2024-02-26T12:53:58;99605.46;;;15.87;100.00
43683;BME280;29285;52.128;21.060;2024-02-26T12:59:00;99604.67;;;16.18;100.00
43683;BME280;29285;52.128;21.060;2024-02-26T13:04:02;99608.20;;;16.38;100.00
43683;BME280;29285;52.128;21.060;2024-02-26T13:09:07;99602.91;;;16.52;100.00
43683;BME280;29285;52.128;21.060;2024-02-26T13:14:22;99603.91;;;16.66;100.00
43683;BME280;29285;52.128;21.060;2024-02-26T13:19:23;99605.28;;;16.84;100.00
43683;BME280;29285;52.128;21.060;2024-02-26T13:24:24;99604.34;;;16.85;100.00
43683;BME280;29285;52.128;21.060;2024-02-26T13:29:26;99598.65;;;16.87;100.00
43683;BME280;29285;52.128;21.060;2024-02-26T13:34:28;99604.52;;;16.98;100.00
43683;BME280;29285;52.128;21.060;2024-02-26T13:39:29;99608.98;;;17.13;100.00
43683;BME280;29285;52.128;21.060;2024-02-26T13:44:30;99614.09;;;17.29;100.00
43683;BME280;29285;52.128;21.060;2024-02-26T13:49:32;99614.45;;;17.45;100.00
43683;BME280;29285;52.128;21.060;2024-02-26T13:54:33;99608.09;;;17.64;100.00
43683;BME280;29285;52.128;21.060;2024-02-26T13:59:34;99607.91;;;17.89;100.00
43683;BME280;29285;52.128;21.060;2024-02-26T14:04:36;99602.93;;;18.33;100.00
43683;BME280;29285;52.128;21.060;2024-02-26T14:09:37;99594.40;;;18.98;100.00
43683;BME280;29285;52.128;21.060;2024-02-26T14:14:38;99593.31;;;19.79;100.00
43683;BME280;29285;52.128;21.060;2024-02-26T14:19:41;99600.66;;;20.35;100.00
43683;BME280;29285;52.128;21.060;2024-02-26T14:24:45;99601.75;;;20.68;100.00
43683;BME280;29285;52.128;21.060;2024-02-26T14:29:46;99598.52;;;21.17;100.00
43683;BME280;29285;52.128;21.060;2024-02-26T14:34:47;99597.48;;;21.39;100.00
43683;BME280;29285;52.128;21.060;2024-02-26T14:39:48;99598.48;;;21.25;100.00
43683;BME280;29285;52.128;21.060;2024-02-26T14:44:52;99602.85;;;20.34;100.00
43683;BME280;29285;52.128;21.060;2024-02-26T14:49:53;99604.90;;;19.30;100.00
43683;BME280;29285;52.128;21.060;2024-02-26T14:54:54;99615.79;;;18.41;100.00
43683;BME280;29285;52.128;21.060;2024-02-26T14:59:55;99613.27;;;17.69;100.00
43683;BME280;29285;52.128;21.060;2024-02-26T15:04:56;99610.70;;;17.14;100.00
43683;BME280;29285;52.128;21.060;2024-02-26T15:09:57;99615.83;;;16.63;100.00
43683;BME280;29285;52.128;21.060;2024-02-26T15:15:00;99616.05;;;16.25;100.00
43683;BME280;29285;52.128;21.060;2024-02-26T15:20:01;99621.20;;;15.87;100.00
43683;BME280;29285;52.128;21.060;2024-02-26T15:25:02;99628.77;;;15.57;100.00
43683;BME280;29285;52.128;21.060;2024-02-26T15:30:04;99627.04;;;15.30;100.00
43683;BME280;29285;52.128;21.060;2024-02-26T15:35:06;99626.58;;;15.06;100.00
43683;BME280;29285;52.128;21.060;2024-02-26T15:40:07;99632.38;;;14.82;100.00
43683;BME280;29285;52.128;21.060;2024-02-26T15:45:09;99637.95;;;14.58;100.00
43683;BME280;29285;52.128;21.060;2024-02-26T15:50:10;99638.48;;;14.33;100.00
43683;BME280;29285;52.128;21.060;2024-02-26T15:55:14;99637.46;;;14.11;100.00
43683;BME280;29285;52.128;21.060;2024-02-26T16:00:15;99648.00;;;13.92;100.00
43683;BME280;29285;52.128;21.060;2024-02-26T16:05:16;99646.29;;;13.79;100.00
43683;BME280;29285;52.128;21.060;2024-02-26T16:10:17;99647.00;;;13.65;100.00
43683;BME280;29285;52.128;21.060;2024-02-26T16:15:19;99652.27;;;13.51;100.00
43683;BME280;29285;52.128;21.060;2024-02-26T16:20:24;99660.98;;;13.41;100.00
43683;BME280;29285;52.128;21.060;2024-02-26T16:25:26;99666.65;;;13.29;100.00
43683;BME280;29285;52.128;21.060;2024-02-26T16:30:27;99672.92;;;13.19;100.00
43683;BME280;29285;52.128;21.060;2024-02-26T16:35:30;99678.90;;;13.14;100.00
43683;BME280;29285;52.128;21.060;2024-02-26T16:40:31;99676.23;;;13.10;100.00
43683;BME280;29285;52.128;21.060;2024-02-26T16:45:32;99683.69;;;13.06;100.00
43683;BME280;29285;52.128;21.060;2024-02-26T16:50:33;99678.79;;;13.07;100.00
43683;BME280;29285;52.128;21.060;2024-02-26T16:55:34;99682.11;;;13.06;100.00
43683;BME280;29285;52.128;21.060;2024-02-26T17:00:35;99683.71;;;13.06;100.00
43683;BME280;29285;52.128;21.060;2024-02-26T17:05:36;99687.46;;;13.03;100.00
43683;BME280;29285;52.128;21.060;2024-02-26T17:10:38;99693.81;;;12.96;100.00
43683;BME280;29285;52.128;21.060;2024-02-26T17:15:39;99698.55;;;12.90;100.00
43683;BME280;29285;52.128;21.060;2024-02-26T17:20:41;99696.34;;;12.88;100.00
43683;BME280;29285;52.128;21.060;2024-02-26T17:25:42;99696.94;;;12.86;100.00
43683;BME280;29285;52.128;21.060;2024-02-26T17:30:44;99694.07;;;12.84;100.00
43683;BME280;29285;52.128;21.060;2024-02-26T17:35:46;99695.19;;;12.81;100.00
43683;BME280;29285;52.128;21.060;2024-02-26T17:40:47;99691.81;;;12.78;100.00
43683;BME280;29285;52.128;21.060;2024-02-26T17:45:49;99698.55;;;12.75;100.00
43683;BME280;29285;52.128;21.060;2024-02-26T17:50:50;99699.59;;;12.75;100.00
43683;BME280;29285;52.128;21.060;2024-02-26T17:55:51;99702.15;;;12.72;100.00
43683;BME280;29285;52.128;21.060;2024-02-26T18:00:52;99710.70;;;12.66;100.00
43683;BME280;29285;52.128;21.060;2024-02-26T18:05:54;99713.61;;;12.62;100.00
43683;BME280;29285;52.128;21.060;2024-02-26T18:10:55;99710.39;;;12.60;100.00
43683;BME280;29285;52.128;21.060;2024-02-26T18:15:56;99714.77;;;12.54;100.00
43683;BME280;29285;52.128;21.060;2024-02-26T18:20:58;99715.61;;;12.49;100.00
43683;BME280;29285;52.128;21.060;2024-02-26T18:25:59;99715.16;;;12.47;100.00
43683;BME280;29285;52.128;21.060;2024-02-26T18:31:00;99712.96;;;12.45;100.00
43683;BME280;29285;52.128;21.060;2024-02-26T18:36:01;99712.09;;;12.45;100.00
43683;BME280;29285;52.128;21.060;2024-02-26T18:41:06;99708.86;;;12.43;100.00
43683;BME280;29285;52.128;21.060;2024-02-26T18:46:07;99707.89;;;12.41;100.00
43683;BME280;29285;52.128;21.060;2024-02-26T18:51:09;99715.54;;;12.41;100.00
43683;BME280;29285;52.128;21.060;2024-02-26T18:56:11;99710.60;;;12.38;100.00
43683;BME280;29285;52.128;21.060;2024-02-26T19:01:12;99710.55;;;12.34;100.00
43683;BME280;29285;52.128;21.060;2024-02-26T19:06:13;99714.77;;;12.32;100.00
43683;BME280;29285;52.128;21.060;2024-02-26T19:11:14;99721.23;;;12.32;100.00
43683;BME280;29285;52.128;21.060;2024-02-26T19:16:17;99725.10;;;12.30;100.00
43683;BME280;29285;52.128;21.060;2024-02-26T19:21:18;99726.22;;;12.28;100.00
43683;BME280;29285;52.128;21.060;2024-02-26T19:26:20;99722.95;;;12.27;100.00
43683;BME280;29285;52.128;21.060;2024-02-26T19:31:21;99723.02;;;12.25;100.00
43683;BME280;29285;52.128;21.060;2024-02-26T19:36:22;99723.48;;;12.21;100.00
43683;BME280;29285;52.128;21.060;2024-02-26T19:41:23;99726.58;;;12.17;100.00
43683;BME280;29285;52.128;21.060;2024-02-26T19:46:24;99728.02;;;12.15;100.00
43683;BME280;29285;52.128;21.060;2024-02-26T19:51:25;99725.54;;;12.12;100.00
43683;BME280;29285;52.128;21.060;2024-02-26T19:56:27;99724.87;;;12.10;100.00
43683;BME280;29285;52.128;21.060;2024-02-26T20:01:29;99722.29;;;12.10;100.00
43683;BME280;29285;52.128;21.060;2024-02-26T20:06:30;99723.39;;;12.08;100.00
43683;BME280;29285;52.128;21.060;2024-02-26T20:11:33;99721.58;;;12.04;100.00
43683;BME280;29285;52.128;21.060;2024-02-26T20:16:34;99730.89;;;12.01;100.00
43683;BME280;29285;52.128;21.060;2024-02-26T20:21:36;99733.80;;;11.97;100.00
43683;BME280;29285;52.128;21.060;2024-02-26T20:26:40;99734.42;;;11.93;100.00
43683;BME280;29285;52.128;21.060;2024-02-26T20:31:44;99737.78;;;11.92;100.00
43683;BME280;29285;52.128;21.060;2024-02-26T20:36:45;99738.85;;;11.90;100.00
43683;BME280;29285;52.128;21.060;2024-02-26T20:41:46;99735.55;;;11.90;100.00
43683;BME280;29285;52.128;21.060;2024-02-26T20:46:47;99738.17;;;11.89;100.00
43683;BME280;29285;52.128;21.060;2024-02-26T20:51:49;99740.38;;;11.91;100.00
43683;BME280;29285;52.128;21.060;2024-02-26T20:56:50;99736.95;;;11.96;100.00
43683;BME280;29285;52.128;21.060;2024-02-26T21:01:51;99740.31;;;12.05;100.00
43683;BME280;29285;52.128;21.060;2024-02-26T21:06:52;99742.90;;;12.12;100.00
43683;BME280;29285;52.128;21.060;2024-02-26T21:11:53;99752.41;;;12.14;100.00
43683;BME280;29285;52.128;21.060;2024-02-26T21:16:55;99758.60;;;12.16;100.00
43683;BME280;29285;52.128;21.060;2024-02-26T21:21:56;99755.49;;;12.21;100.00
43683;BME280;29285;52.128;21.060;2024-02-26T21:26:57;99755.65;;;12.27;100.00
43683;BME280;29285;52.128;21.060;2024-02-26T21:31:58;99760.14;;;12.34;100.00
43683;BME280;29285;52.128;21.060;2024-02-26T21:36:59;99762.06;;;12.39;100.00
43683;BME280;29285;52.128;21.060;2024-02-26T21:42:00;99769.92;;;12.43;100.00
43683;BME280;29285;52.128;21.060;2024-02-26T21:47:01;99769.73;;;12.38;100.00
43683;BME280;29285;52.128;21.060;2024-02-26T21:52:03;99775.04;;;12.36;100.00
43683;BME280;29285;52.128;21.060;2024-02-26T21:57:05;99781.16;;;12.29;100.00
43683;BME280;29285;52.128;21.060;2024-02-26T22:02:06;99785.32;;;12.23;100.00
43683;BME280;29285;52.128;21.060;2024-02-26T22:07:07;99789.15;;;12.17;100.00
43683;BME280;29285;52.128;21.060;2024-02-26T22:12:09;99796.42;;;12.13;100.00
43683;BME280;29285;52.128;21.060;2024-02-26T22:17:10;99804.34;;;12.10;100.00
43683;BME280;29285;52.128;21.060;2024-02-26T22:22:11;99806.36;;;12.07;100.00
43683;BME280;29285;52.128;21.060;2024-02-26T22:27:12;99813.73;;;12.03;100.00
43683;BME280;29285;52.128;21.060;2024-02-26T22:32:13;99817.39;;;11.97;100.00
43683;BME280;29285;52.128;21.060;2024-02-26T22:37:14;99820.10;;;11.88;100.00
43683;BME280;29285;52.128;21.060;2024-02-26T22:42:16;99818.11;;;11.78;100.00
43683;BME280;29285;52.128;21.060;2024-02-26T22:47:18;99826.63;;;11.72;100.00
43683;BME280;29285;52.128;21.060;2024-02-26T22:52:19;99825.08;;;11.72;100.00
43683;BME280;29285;52.128;21.060;2024-02-26T22:57:20;99823.21;;;11.76;100.00
43683;BME280;29285;52.128;21.060;2024-02-26T23:02:21;99826.39;;;11.74;100.00
43683;BME280;29285;52.128;21.060;2024-02-26T23:07:22;99832.79;;;11.69;100.00
43683;BME280;29285;52.128;21.060;2024-02-26T23:12:23;99828.87;;;11.67;100.00
43683;BME280;29285;52.128;21.060;2024-02-26T23:17:24;99826.48;;;11.65;100.00
43683;BME280;29285;52.128;21.060;2024-02-26T23:22:25;99824.56;;;11.65;100.00
43683;BME280;29285;52.128;21.060;2024-02-26T23:27:27;99828.20;;;11.66;100.00
43683;BME280;29285;52.128;21.060;2024-02-26T23:32:28;99834.11;;;11.66;100.00
43683;BME280;29285;52.128;21.060;2024-02-26T23:37:29;99834.61;;;11.67;100.00
43683;BME280;29285;52.128;21.060;2024-02-26T23:42:30;99836.73;;;11.65;100.00
43683;BME280;29285;52.128;21.060;2024-02-26T23:47:31;99840.73;;;11.65;100.00
43683;BME280;29285;52.128;21.060;2024-02-26T23:52:32;99851.46;;;11.61;100.00
43683;BME280;29285;52.128;21.060;2024-02-26T23:57:34;99850.32;;;11.51;100.00
